Time;durP1;ratioP1;P1;durP2;ratioP2;P2;SDS_P1;SDS_P2;PMS_P1;PMS_P2;Temp;Humidity;BMP_temperature;BMP_pressure;BME280_temperature;BME280_humidity;BME280_pressure;Samples;Min_cycle;Max_cycle;Signal;HPM_P1;HPM_P2
2021/01/23 00:01:19;;;;;;;26.48;16.88;;;3.10;84.00;;;;;;5084364;28;20025;-57
2021/01/23 00:03:44;;;;;;;26.88;18.25;;;3.10;84.00;;;;;;5076001;28;20025;-48
2021/01/23 00:06:10;;;;;;;27.15;16.50;;;3.20;84.10;;;;;;5075836;28;20021;-50
2021/01/23 00:08:36;;;;;;;28.63;18.42;;;3.20;84.30;;;;;;5075560;28;20051;-51
2021/01/23 00:11:02;;;;;;;37.03;22.67;;;3.30;84.30;;;;;;5075508;28;20052;-54
2021/01/23 00:13:27;;;;;;;32.65;21.67;;;3.30;84.40;;;;;;5075918;28;20029;-49
2021/01/23 00:15:53;;;;;;;33.05;22.42;;;3.40;84.40;;;;;;5075212;28;20422;-51
2021/01/23 00:18:19;;;;;;;38.67;24.70;;;3.40;84.20;;;;;;5076141;28;20083;-51
2021/01/23 00:20:44;;;;;;;39.40;24.95;;;3.50;84.00;;;;;;5075740;28;20021;-51
2021/01/23 00:23:10;;;;;;;31.85;18.63;;;3.50;84.00;;;;;;5081567;28;20376;-50
2021/01/23 00:25:36;;;;;;;24.90;16.13;;;3.50;84.10;;;;;;5079717;28;20025;-48
2021/01/23 00:28:02;;;;;;;28.40;16.25;;;3.50;84.00;;;;;;5075615;28;20020;-53
2021/01/23 00:30:28;;;;;;;28.83;17.52;;;3.50;84.00;;;;;;5075269;28;20052;-47
2021/01/23 00:32:53;;;;;;;32.05;18.92;;;3.50;84.10;;;;;;5078449;28;20059;-49
2021/01/23 00:35:19;;;;;;;26.95;15.15;;;3.60;84.20;;;;;;5079305;28;20072;-51
2021/01/23 00:37:47;;;;;;;24.55;15.57;;;3.60;84.30;;;;;;5079217;28;20028;-50
2021/01/23 00:40:13;;;;;;;29.00;16.60;;;3.60;84.40;;;;;;5078936;28;20033;-51
2021/01/23 00:42:39;;;;;;;28.73;16.55;;;3.60;84.50;;;;;;5079628;28;20188;-48
2021/01/23 00:45:06;;;;;;;30.80;16.23;;;3.70;84.70;;;;;;5079163;28;20032;-47
2021/01/23 00:47:31;;;;;;;28.80;17.13;;;3.60;84.70;;;;;;5096207;28;20035;-51
2021/01/23 00:49:57;;;;;;;28.85;16.90;;;3.60;84.70;;;;;;5098604;28;20032;-48
2021/01/23 00:52:23;;;;;;;28.80;16.83;;;3.70;84.80;;;;;;5097448;28;20055;-51
2021/01/23 00:54:49;;;;;;;28.95;16.80;;;3.70;84.90;;;;;;5098761;28;20339;-48
2021/01/23 00:57:14;;;;;;;29.33;17.00;;;3.70;84.90;;;;;;5099392;28;20016;-51
2021/01/23 00:59:40;;;;;;;28.13;18.08;;;3.70;84.90;;;;;;5099168;28;20032;-48
2021/01/23 01:02:06;;;;;;;26.38;16.90;;;3.70;85.00;;;;;;5098838;28;20046;-51
2021/01/23 01:04:31;;;;;;;27.45;17.33;;;3.70;85.10;;;;;;5098587;28;20036;-48
2021/01/23 01:06:57;;;;;;;35.38;18.75;;;3.70;84.90;;;;;;5099283;28;20077;-51
2021/01/23 01:09:22;;;;;;;29.67;18.63;;;3.80;84.90;;;;;;5098982;28;20032;-48
2021/01/23 01:11:48;;;;;;;32.67;18.95;;;3.70;84.90;;;;;;5098553;28;20038;-51
2021/01/23 01:14:14;;;;;;;29.15;17.63;;;3.80;85.00;;;;;;5098891;28;20040;-47
2021/01/23 01:16:39;;;;;;;30.92;18.52;;;3.80;84.90;;;;;;5098056;28;20024;-50
2021/01/23 01:19:05;;;;;;;29.67;18.08;;;3.80;85.00;;;;;;5092284;28;20036;-48
2021/01/23 01:21:31;;;;;;;33.30;19.13;;;3.70;84.90;;;;;;5084376;28;20131;-47
2021/01/23 01:23:57;;;;;;;34.03;19.42;;;3.80;85.00;;;;;;5078132;28;20036;-48
2021/01/23 01:26:22;;;;;;;30.35;18.90;;;3.80;85.10;;;;;;5095865;28;20111;-50
2021/01/23 01:28:48;;;;;;;28.30;18.20;;;3.80;85.10;;;;;;5098504;28;20024;-48
2021/01/23 01:31:14;;;;;;;31.95;18.00;;;3.80;85.30;;;;;;5098210;28;20346;-49
2021/01/23 01:33:39;;;;;;;32.58;18.55;;;3.80;85.30;;;;;;5098436;28;20028;-48
2021/01/23 01:36:05;;;;;;;29.58;18.02;;;3.90;85.40;;;;;;5098260;28;20136;-52
2021/01/23 01:38:31;;;;;;;30.63;18.25;;;3.80;85.20;;;;;;5098387;28;20032;-47
2021/01/23 01:40:57;;;;;;;28.90;17.38;;;3.90;85.30;;;;;;5092169;28;20420;-48
2021/01/23 01:43:22;;;;;;;33.10;19.13;;;3.90;85.20;;;;;;5097188;28;20417;-48
2021/01/23 01:45:48;;;;;;;29.55;16.80;;;3.90;85.20;;;;;;5087499;28;20027;-49
2021/01/23 01:48:15;;;;;;;33.97;19.00;;;3.90;85.20;;;;;;5098608;28;20028;-48
2021/01/23 01:50:41;;;;;;;32.13;17.73;;;3.90;85.30;;;;;;5097911;28;20032;-48
2021/01/23 01:53:07;;;;;;;29.80;18.42;;;3.90;85.30;;;;;;5097650;28;20517;-48
2021/01/23 01:55:35;;;;;;;33.70;18.38;;;4.00;85.30;;;;;;5097427;28;20035;-48
2021/01/23 01:58:01;;;;;;;32.55;19.17;;;4.00;85.40;;;;;;5097714;28;20012;-48
2021/01/23 02:00:27;;;;;;;33.63;18.48;;;4.00;85.30;;;;;;5097430;28;20027;-49
2021/01/23 02:03:35;;;;;;;36.88;19.60;;;4.00;85.30;;;;;;5097960;28;20156;-48
2021/01/23 02:06:19;;;;;;;33.35;18.80;;;4.00;85.20;;;;;;5095860;28;20024;-49
2021/01/23 02:09:03;;;;;;;31.70;18.02;;;4.00;85.30;;;;;;5098046;28;20111;-48
2021/01/23 02:11:48;;;;;;;32.90;18.58;;;4.00;85.50;;;;;;5097513;28;20481;-48
2021/01/23 02:14:45;;;;;;;33.38;18.98;;;3.90;85.50;;;;;;5097778;28;20360;-48
2021/01/23 02:17:14;;;;;;;31.55;17.77;;;3.90;85.50;;;;;;5097932;28;20111;-57
2021/01/23 02:20:03;;;;;;;33.08;19.13;;;3.90;85.70;;;;;;5097248;28;20039;-56
2021/01/23 02:23:04;;;;;;;34.03;18.48;;;3.90;85.90;;;;;;5096984;28;20056;-56
2021/01/23 02:26:02;;;;;;;32.33;17.77;;;3.90;85.90;;;;;;5097152;28;20385;-56
2021/01/23 02:29:06;;;;;;;35.92;19.88;;;3.90;86.00;;;;;;5093217;28;20067;-57
2021/01/23 02:31:56;;;;;;;38.40;19.10;;;3.80;86.10;;;;;;5092912;28;20353;-56
2021/01/23 02:34:25;;;;;;;34.70;18.85;;;3.80;86.30;;;;;;5087847;28;20032;-56
2021/01/23 02:36:52;;;;;;;34.15;19.75;;;3.80;86.40;;;;;;5096233;28;20034;-56
2021/01/23 02:39:19;;;;;;;38.20;20.48;;;3.80;86.50;;;;;;5097355;28;20380;-57
2021/01/23 02:41:46;;;;;;;35.13;19.30;;;3.80;86.70;;;;;;5092978;28;20073;-47
2021/01/23 02:44:15;;;;;;;32.80;18.92;;;3.90;86.70;;;;;;5096396;28;20055;-50
2021/01/23 02:46:41;;;;;;;37.35;20.00;;;3.90;86.80;;;;;;5096003;28;20487;-48
2021/01/23 02:49:07;;;;;;;33.47;18.42;;;3.90;86.70;;;;;;5095917;28;20036;-49
2021/01/23 02:51:57;;;;;;;35.63;19.77;;;3.90;86.60;;;;;;5095546;28;20028;-49
2021/01/23 02:54:46;;;;;;;34.17;20.85;;;4.00;86.80;;;;;;5096960;28;20093;-48
2021/01/23 02:57:13;;;;;;;39.20;20.77;;;4.00;86.60;;;;;;5097119;28;20024;-48
2021/01/23 02:59:42;;;;;;;42.17;22.05;;;4.00;86.60;;;;;;5096227;28;20032;-47
2021/01/23 03:02:11;;;;;;;36.97;19.52;;;4.00;86.60;;;;;;5097031;28;20085;-48
2021/01/23 03:04:39;;;;;;;42.78;20.80;;;4.00;86.60;;;;;;5096326;28;20032;-48
2021/01/23 03:07:06;;;;;;;39.33;21.48;;;4.00;86.70;;;;;;5096585;28;20107;-47
2021/01/23 03:09:32;;;;;;;38.30;21.27;;;4.00;86.70;;;;;;5096606;28;20123;-50
2021/01/23 03:11:58;;;;;;;41.85;21.90;;;4.00;86.70;;;;;;5096110;28;20118;-49
2021/01/23 03:14:24;;;;;;;50.90;23.60;;;4.00;86.60;;;;;;5096267;28;20028;-47
2021/01/23 03:16:51;;;;;;;38.45;20.27;;;4.10;86.70;;;;;;5096375;28;20026;-49
2021/01/23 03:19:17;;;;;;;36.83;20.08;;;4.10;86.70;;;;;;5096788;28;20349;-48
2021/01/23 03:21:44;;;;;;;37.85;21.15;;;4.10;86.70;;;;;;5095501;28;20048;-48
2021/01/23 03:24:10;;;;;;;39.08;20.98;;;4.10;86.60;;;;;;5096669;28;20085;-48
2021/01/23 03:26:36;;;;;;;41.65;22.48;;;4.10;86.60;;;;;;5095619;28;20371;-51
2021/01/23 03:29:03;;;;;;;43.17;21.23;;;4.20;86.60;;;;;;5095006;28;20084;-47
2021/01/23 03:31:29;;;;;;;41.33;22.50;;;4.20;86.60;;;;;;5094272;28;20434;-47
2021/01/23 03:33:56;;;;;;;41.92;21.92;;;4.20;86.40;;;;;;5094667;28;20035;-49
2021/01/23 03:36:22;;;;;;;40.90;22.23;;;4.20;86.30;;;;;;5094505;28;20028;-47
2021/01/23 03:38:48;;;;;;;43.33;23.58;;;4.20;86.30;;;;;;5093703;28;20437;-48
2021/01/23 03:41:13;;;;;;;42.30;22.83;;;4.20;86.20;;;;;;5093374;28;20028;-50
2021/01/23 03:43:39;;;;;;;48.78;23.23;;;4.20;86.20;;;;;;5095494;28;20035;-49
2021/01/23 03:46:05;;;;;;;47.88;23.20;;;4.20;86.20;;;;;;5095957;28;20332;-50
2021/01/23 03:48:30;;;;;;;46.50;22.42;;;4.20;86.20;;;;;;5095961;28;20028;-49
2021/01/23 03:50:56;;;;;;;45.47;22.27;;;4.20;86.10;;;;;;5095126;28;20421;-49
2021/01/23 03:53:22;;;;;;;43.85;22.80;;;4.20;86.10;;;;;;5095367;28;20036;-48
2021/01/23 03:55:47;;;;;;;46.85;23.23;;;4.20;86.10;;;;;;5093900;28;20084;-51
2021/01/23 03:58:17;;;;;;;42.20;22.33;;;4.20;86.10;;;;;;5094439;28;20116;-48
2021/01/23 04:00:43;;;;;;;44.13;22.25;;;4.20;86.10;;;;;;5094912;28;20016;-49
2021/01/23 04:03:08;;;;;;;44.65;22.48;;;4.20;86.00;;;;;;5095196;28;20060;-47
2021/01/23 04:05:34;;;;;;;50.80;22.15;;;4.20;85.90;;;;;;5094484;28;20163;-50
2021/01/23 04:08:00;;;;;;;45.85;23.60;;;4.20;85.90;;;;;;5099560;28;20020;-48
2021/01/23 04:10:25;;;;;;;51.67;24.05;;;4.20;86.00;;;;;;5099423;28;20065;-49
2021/01/23 04:12:51;;;;;;;48.53;23.10;;;4.10;86.00;;;;;;5099775;28;20028;-48
2021/01/23 04:15:17;;;;;;;40.95;22.48;;;4.10;86.10;;;;;;5099701;28;20016;-50
2021/01/23 04:17:42;;;;;;;52.25;24.58;;;4.10;86.20;;;;;;5099841;28;20095;-51
2021/01/23 04:20:09;;;;;;;51.72;23.75;;;4.10;86.30;;;;;;5098757;28;20035;-48
2021/01/23 04:22:35;;;;;;;47.95;23.30;;;4.10;86.40;;;;;;5098139;28;20059;-50
2021/01/23 04:25:00;;;;;;;58.15;24.77;;;4.00;86.60;;;;;;5098346;28;20123;-47
2021/01/23 04:27:26;;;;;;;49.90;23.92;;;4.00;86.70;;;;;;5099736;28;20097;-48
2021/01/23 04:29:52;;;;;;;50.95;24.42;;;4.00;86.80;;;;;;5099577;28;20042;-48
2021/01/23 04:32:17;;;;;;;50.42;24.70;;;4.00;87.00;;;;;;5099703;28;20031;-51
2021/01/23 04:34:43;;;;;;;48.45;22.85;;;4.00;87.00;;;;;;5099648;28;20024;-47
2021/01/23 04:37:09;;;;;;;54.10;24.00;;;4.00;87.10;;;;;;5099468;28;20024;-49
2021/01/23 04:39:35;;;;;;;47.70;23.83;;;4.00;87.20;;;;;;5098893;28;20036;-47
2021/01/23 04:42:05;;;;;;;52.08;23.63;;;4.00;87.30;;;;;;5099155;28;20040;-49
2021/01/23 04:44:31;;;;;;;52.10;23.20;;;4.00;87.40;;;;;;5098945;28;20384;-48
2021/01/23 04:46:57;;;;;;;56.03;24.85;;;4.00;87.60;;;;;;5098894;28;20028;-48
2021/01/23 04:49:23;;;;;;;49.05;22.30;;;4.00;87.80;;;;;;5099377;28;20315;-49
2021/01/23 04:51:48;;;;;;;53.05;24.52;;;4.00;87.90;;;;;;5098520;28;20034;-48
2021/01/23 04:54:14;;;;;;;56.28;21.90;;;4.00;87.90;;;;;;5098803;28;20032;-49
2021/01/23 04:56:39;;;;;;;51.05;20.13;;;4.00;87.90;;;;;;5099672;28;20064;-49
2021/01/23 04:59:05;;;;;;;70.65;23.83;;;4.00;88.20;;;;;;5098382;28;20093;-48
2021/01/23 05:01:31;;;;;;;56.83;23.02;;;4.00;88.10;;;;;;5098579;28;20028;-50
2021/01/23 05:04:01;;;;;;;54.65;22.10;;;4.00;88.30;;;;;;5098749;28;20325;-48
2021/01/23 05:06:31;;;;;;;61.28;24.00;;;4.00;88.50;;;;;;5098266;28;20030;-56
2021/01/23 05:08:57;;;;;;;51.30;22.90;;;4.00;88.40;;;;;;5098527;28;20039;-56
2021/01/23 05:11:42;;;;;;;50.20;23.55;;;4.00;88.50;;;;;;5097610;28;20020;-57
2021/01/23 05:14:13;;;;;;;47.13;22.10;;;4.00;88.60;;;;;;5098193;28;20060;-56
2021/01/23 05:16:39;;;;;;;47.42;21.58;;;4.00;88.70;;;;;;5098636;28;20020;-56
2021/01/23 05:19:05;;;;;;;43.28;20.65;;;4.10;88.70;;;;;;5098582;28;20054;-56
2021/01/23 05:21:33;;;;;;;46.97;21.45;;;4.10;88.90;;;;;;5097974;28;20482;-56
2021/01/23 05:24:10;;;;;;;46.70;21.70;;;4.10;88.90;;;;;;5097678;28;20168;-56
2021/01/23 05:26:37;;;;;;;45.63;21.02;;;4.20;88.90;;;;;;5097267;28;20020;-56
2021/01/23 05:29:12;;;;;;;43.58;20.70;;;4.20;88.90;;;;;;5096621;28;20028;-57
2021/01/23 05:31:38;;;;;;;43.28;19.73;;;4.20;88.70;;;;;;5096686;28;20027;-56
2021/01/23 05:34:28;;;;;;;42.63;19.40;;;4.20;88.60;;;;;;5095759;28;20093;-57
2021/01/23 05:36:55;;;;;;;38.13;20.25;;;4.30;88.60;;;;;;5083942;28;20077;-55
2021/01/23 05:39:21;;;;;;;42.25;19.60;;;4.30;88.70;;;;;;5096737;28;20045;-55
2021/01/23 05:42:06;;;;;;;43.13;20.70;;;4.30;88.70;;;;;;5097311;28;20039;-55
2021/01/23 05:44:32;;;;;;;49.10;22.42;;;4.40;88.70;;;;;;5097500;28;20055;-56
2021/01/23 05:46:57;;;;;;;37.95;20.55;;;4.40;88.60;;;;;;5097360;28;20063;-56
2021/01/23 05:49:23;;;;;;;43.65;21.08;;;4.40;88.60;;;;;;5101055;28;20028;-56
2021/01/23 05:51:50;;;;;;;47.55;26.73;;;4.40;88.60;;;;;;5105604;28;20024;-55
2021/01/23 05:54:16;;;;;;;44.97;20.95;;;4.40;88.40;;;;;;5096435;28;20119;-55
2021/01/23 05:56:43;;;;;;;49.22;22.55;;;4.40;88.60;;;;;;5099601;28;21608;-54
2021/01/23 05:59:08;;;;;;;45.15;20.40;;;4.50;89.20;;;;;;5097296;28;20444;-54
2021/01/23 06:01:35;;;;;;;46.20;22.27;;;4.50;88.70;;;;;;5097920;28;20020;-56
2021/01/23 06:04:02;;;;;;;45.17;22.42;;;4.60;88.80;;;;;;5097166;28;20043;-56
2021/01/23 06:06:45;;;;;;;43.72;22.25;;;4.60;89.00;;;;;;5096312;28;20024;-56
2021/01/23 06:09:36;;;;;;;37.63;18.92;;;4.70;88.90;;;;;;5104927;28;20042;-55
2021/01/23 06:12:03;;;;;;;;;;;4.80;88.70;;;;;;5099807;28;20051;-56
2021/01/23 06:14:40;;;;;;;36.88;18.50;;;4.80;88.40;;;;;;5096981;28;20002;-56
2021/01/23 06:17:06;;;;;;;45.13;20.50;;;4.80;88.30;;;;;;5095372;28;20043;-56
2021/01/23 06:19:34;;;;;;;44.20;19.98;;;4.80;88.30;;;;;;5089150;28;20024;-56
2021/01/23 06:22:00;;;;;;;34.60;19.15;;;4.90;88.40;;;;;;5085659;28;20366;-56
2021/01/23 06:24:46;;;;;;;41.88;21.92;;;4.90;88.30;;;;;;5102119;28;20039;-56
2021/01/23 06:27:12;;;;;;;50.97;24.05;;;5.00;88.00;;;;;;5102087;28;20115;-55
2021/01/23 06:29:41;;;;;;;42.55;22.48;;;5.00;87.90;;;;;;5096637;28;20215;-56
2021/01/23 06:32:13;;;;;;;48.25;23.75;;;5.00;87.70;;;;;;5107966;28;20459;-57
2021/01/23 06:34:48;;;;;;;49.67;23.00;;;5.10;87.50;;;;;;5115015;28;20031;-56
2021/01/23 06:37:34;;;;;;;47.10;22.50;;;5.00;87.20;;;;;;5097726;28;20056;-55
2021/01/23 06:40:26;;;;;;;57.63;24.48;;;5.10;87.00;;;;;;5108800;28;20059;-55
2021/01/23 06:42:53;;;;;;;54.50;26.30;;;5.00;87.00;;;;;;5097347;28;20436;-56
2021/01/23 06:45:20;;;;;;;52.70;23.23;;;5.00;87.20;;;;;;5095837;28;20379;-56
2021/01/23 06:47:52;;;;;;;42.88;21.70;;;5.00;87.20;;;;;;5095343;28;20560;-57
2021/01/23 06:50:50;;;;;;;42.42;22.17;;;5.10;87.40;;;;;;5104984;28;20023;-55
2021/01/23 06:53:16;;;;;;;39.55;19.65;;;5.10;87.30;;;;;;5065237;28;20127;-55
2021/01/23 06:55:46;;;;;;;38.38;20.70;;;5.10;87.20;;;;;;5079511;28;20115;-56
2021/01/23 06:58:13;;;;;;;39.50;20.83;;;5.10;87.10;;;;;;5103776;28;20071;-56
2021/01/23 07:00:40;;;;;;;37.88;19.67;;;5.10;87.00;;;;;;5096080;28;20346;-57
2021/01/23 07:03:12;;;;;;;42.90;20.50;;;5.10;86.90;;;;;;5093894;28;20154;-54
2021/01/23 07:05:54;;;;;;;;;;;5.10;86.90;;;;;;5080509;28;20109;-54
2021/01/23 07:08:20;;;;;;;49.03;23.20;;;5.00;86.60;;;;;;5094010;28;19919;-54
2021/01/23 07:11:01;;;;;;;48.20;22.55;;;5.00;86.70;;;;;;5085209;28;20098;-54
2021/01/23 07:13:27;;;;;;;51.20;25.60;;;5.00;87.00;;;;;;5110134;28;20499;-55
2021/01/23 07:15:53;;;;;;;57.35;27.52;;;5.00;87.10;;;;;;5102910;28;20032;-56
2021/01/23 07:18:18;;;;;;;46.63;23.73;;;5.00;87.10;;;;;;5084810;28;20430;-53
2021/01/23 07:20:44;;;;;;;50.90;26.67;;;5.00;87.20;;;;;;5103476;28;20389;-53
2021/01/23 07:23:12;;;;;;;41.22;22.15;;;5.10;87.40;;;;;;5082198;28;20494;-53
2021/01/23 07:25:38;;;;;;;37.88;21.27;;;5.10;87.70;;;;;;5091460;28;20027;-54
2021/01/23 07:28:04;;;;;;;36.75;20.73;;;5.10;86.90;;;;;;5098792;28;20021;-49
2021/01/23 07:30:30;;;;;;;39.55;21.20;;;5.10;86.70;;;;;;5103575;28;20429;-48
2021/01/23 07:32:56;;;;;;;37.80;19.80;;;5.00;86.60;;;;;;5111937;28;20028;-46
2021/01/23 07:35:22;;;;;;;35.17;19.90;;;5.00;86.70;;;;;;5099547;28;20139;-48
2021/01/23 07:37:56;;;;;;;31.85;19.20;;;5.00;86.70;;;;;;5093585;28;20030;-49
2021/01/23 07:40:39;;;;;;;40.83;20.30;;;5.10;86.90;;;;;;5125816;27;20043;-50
2021/01/23 07:43:06;;;;;;;46.53;24.25;;;5.10;86.90;;;;;;5105730;28;20031;-48
2021/01/23 07:45:33;;;;;;;39.70;20.65;;;5.10;86.90;;;;;;5111563;28;20019;-54
2021/01/23 07:48:04;;;;;;;41.45;20.13;;;5.10;86.90;;;;;;5115056;28;20114;-51
2021/01/23 07:50:40;;;;;;;35.97;21.58;;;5.10;86.80;;;;;;5097980;28;20019;-49
2021/01/23 07:53:20;;;;;;;36.75;21.00;;;5.10;86.50;;;;;;5097568;28;20483;-55
2021/01/23 07:55:47;;;;;;;43.60;23.75;;;5.10;86.40;;;;;;5100914;28;20028;-53
2021/01/23 07:58:14;;;;;;;42.13;22.27;;;5.10;86.30;;;;;;5093719;28;20028;-57
2021/01/23 08:00:41;;;;;;;44.67;23.38;;;5.10;86.20;;;;;;5102092;28;20027;-54
2021/01/23 08:03:07;;;;;;;40.20;22.42;;;5.10;86.10;;;;;;5094471;28;20032;-54
2021/01/23 08:05:50;;;;;;;46.88;25.42;;;5.10;86.10;;;;;;5096380;28;20099;-56
2021/01/23 08:08:38;;;;;;;44.55;22.52;;;5.10;86.10;;;;;;5116071;28;20105;-56
2021/01/23 08:11:05;;;;;;;42.08;21.63;;;5.10;86.20;;;;;;5104649;28;20437;-56
2021/01/23 08:13:35;;;;;;;45.53;23.33;;;5.10;86.50;;;;;;5091801;28;20118;-56
2021/01/23 08:16:12;;;;;;;45.05;24.05;;;5.10;86.40;;;;;;5105366;28;20031;-56
2021/01/23 08:18:39;;;;;;;39.50;21.65;;;5.10;86.40;;;;;;5093326;28;20036;-55
2021/01/23 08:21:21;;;;;;;44.10;21.73;;;5.10;86.40;;;;;;5089446;28;20016;-49
2021/01/23 08:23:47;;;;;;;41.10;21.85;;;5.10;86.20;;;;;;5092375;28;20093;-55
2021/01/23 08:26:14;;;;;;;41.33;21.92;;;5.10;86.00;;;;;;5087499;28;20024;-51
2021/01/23 08:28:42;;;;;;;47.80;23.10;;;5.00;85.90;;;;;;5089567;28;20036;-48
2021/01/23 08:31:15;;;;;;;35.45;20.55;;;5.00;85.90;;;;;;5090238;28;20032;-48
2021/01/23 08:33:47;;;;;;;41.47;22.10;;;5.00;86.00;;;;;;5088314;28;20028;-47
2021/01/23 08:36:14;;;;;;;39.35;21.55;;;5.00;86.20;;;;;;5083882;28;20438;-54
2021/01/23 08:38:40;;;;;;;42.63;22.70;;;5.00;86.20;;;;;;5086003;28;20500;-55
2021/01/23 08:41:07;;;;;;;44.03;23.15;;;5.00;86.20;;;;;;5085599;28;20169;-56
2021/01/23 08:43:33;;;;;;;42.67;23.10;;;5.00;86.50;;;;;;5083341;28;20051;-56
2021/01/23 08:45:59;;;;;;;40.15;22.38;;;5.10;86.70;;;;;;5092697;28;20031;-56
2021/01/23 08:48:24;;;;;;;41.25;23.30;;;5.20;86.70;;;;;;5093800;28;20040;-55
2021/01/23 08:50:50;;;;;;;44.17;23.02;;;5.20;86.70;;;;;;5091700;28;20058;-55
2021/01/23 08:53:16;;;;;;;42.33;23.52;;;5.30;86.80;;;;;;5088723;28;20032;-56
2021/01/23 08:55:42;;;;;;;49.72;24.40;;;5.30;86.90;;;;;;5096708;28;20024;-48
2021/01/23 08:58:08;;;;;;;44.90;25.65;;;5.40;87.00;;;;;;5097600;28;20028;-48
2021/01/23 09:00:34;;;;;;;42.13;23.83;;;5.50;86.60;;;;;;5095234;28;20024;-51
2021/01/23 09:03:00;;;;;;;46.15;25.58;;;5.50;86.20;;;;;;5097366;28;20039;-48
2021/01/23 09:05:26;;;;;;;41.65;23.42;;;5.50;85.70;;;;;;5097572;28;20039;-48
2021/01/23 09:07:52;;;;;;;39.63;22.75;;;5.50;85.30;;;;;;5095975;28;20043;-56
2021/01/23 09:10:20;;;;;;;40.40;22.88;;;5.50;85.20;;;;;;5087430;28;20032;-52
2021/01/23 09:12:47;;;;;;;41.83;22.58;;;5.50;85.30;;;;;;5084357;28;20073;-55
2021/01/23 09:15:14;;;;;;;40.72;22.38;;;5.60;85.70;;;;;;5087840;28;20032;-54
2021/01/23 09:17:40;;;;;;;45.90;25.05;;;5.60;86.10;;;;;;5089297;28;20441;-48
2021/01/23 09:20:08;;;;;;;40.03;23.10;;;5.70;85.80;;;;;;5089875;28;20127;-48
2021/01/23 09:22:34;;;;;;;39.17;21.95;;;5.70;85.50;;;;;;5090717;28;20044;-52
2021/01/23 09:25:00;;;;;;;36.30;19.70;;;5.70;85.30;;;;;;5093051;28;20523;-56
2021/01/23 09:27:27;;;;;;;38.92;20.77;;;5.70;84.90;;;;;;5075541;28;20063;-49
2021/01/23 09:29:53;;;;;;;35.60;20.55;;;5.70;84.80;;;;;;5082022;28;20075;-54
2021/01/23 09:32:20;;;;;;;35.38;20.05;;;5.80;84.90;;;;;;5092387;28;20031;-53
2021/01/23 09:34:47;;;;;;;45.25;22.95;;;5.70;84.40;;;;;;5117196;28;20085;-55
2021/01/23 09:37:13;;;;;;;41.95;22.42;;;5.70;84.60;;;;;;5108805;28;20105;-50
2021/01/23 09:39:39;;;;;;;35.75;20.48;;;5.70;84.50;;;;;;5085655;28;20434;-49
2021/01/23 09:42:05;;;;;;;42.80;23.42;;;5.70;84.60;;;;;;5085823;28;20337;-48
2021/01/23 09:44:31;;;;;;;39.22;22.75;;;5.70;84.60;;;;;;5089256;28;20115;-53
2021/01/23 09:46:57;;;;;;;44.95;24.38;;;5.80;84.80;;;;;;5096896;28;20020;-51
2021/01/23 09:49:23;;;;;;;37.85;22.77;;;5.80;85.10;;;;;;5085567;28;20025;-54
2021/01/23 09:51:50;;;;;;;39.95;21.48;;;5.80;85.00;;;;;;5077261;28;20032;-57
2021/01/23 09:54:17;;;;;;;37.70;21.17;;;5.90;85.00;;;;;;5071197;28;20035;-51
2021/01/23 09:56:43;;;;;;;40.22;20.95;;;5.90;84.60;;;;;;5096388;28;20020;-47
2021/01/23 09:59:08;;;;;;;38.67;21.23;;;6.00;84.70;;;;;;5100211;28;20076;-46
2021/01/23 10:01:34;;;;;;;35.25;21.15;;;6.00;84.30;;;;;;5099743;28;20118;-50
2021/01/23 10:04:00;;;;;;;34.30;21.23;;;6.00;83.90;;;;;;5109131;28;20021;-49
2021/01/23 10:06:26;;;;;;;36.53;20.75;;;6.00;83.50;;;;;;5098614;28;20066;-50
2021/01/23 10:08:52;;;;;;;32.78;20.38;;;5.90;83.40;;;;;;5095866;28;20028;-50
2021/01/23 10:11:18;;;;;;;43.33;23.30;;;5.90;83.50;;;;;;5103605;28;20345;-48
2021/01/23 10:13:44;;;;;;;38.28;20.35;;;6.00;83.70;;;;;;5098709;28;20429;-49
2021/01/23 10:16:10;;;;;;;41.78;23.35;;;5.90;83.50;;;;;;5095403;28;20016;-52
2021/01/23 10:18:36;;;;;;;29.73;18.40;;;5.90;83.80;;;;;;5087121;28;20060;-48
2021/01/23 10:21:06;;;;;;;35.63;19.70;;;5.90;84.10;;;;;;5089866;28;20020;-47
2021/01/23 10:23:32;;;;;;;39.55;20.73;;;6.00;84.10;;;;;;5094432;28;20097;-50
2021/01/23 10:25:58;;;;;;;36.72;21.92;;;6.00;84.30;;;;;;5095597;28;20342;-50
2021/01/23 10:28:24;;;;;;;42.42;23.17;;;6.10;84.20;;;;;;5093620;28;20056;-51
2021/01/23 10:30:50;;;;;;;37.58;21.85;;;6.10;83.70;;;;;;5110461;28;20472;-52
2021/01/23 10:33:16;;;;;;;32.80;19.75;;;6.20;83.50;;;;;;5097347;28;20028;-48
2021/01/23 10:35:42;;;;;;;35.42;21.30;;;6.10;83.40;;;;;;5098227;28;20054;-51
2021/01/23 10:38:08;;;;;;;32.67;19.45;;;6.20;83.20;;;;;;5104458;28;20064;-48
2021/01/23 10:40:34;;;;;;;32.47;19.55;;;6.20;82.90;;;;;;5094658;28;20437;-50
2021/01/23 10:43:00;;;;;;;36.42;20.98;;;6.10;83.10;;;;;;5110207;28;20039;-50
2021/01/23 10:45:26;;;;;;;30.15;18.98;;;6.10;83.30;;;;;;5104052;28;20526;-47
2021/01/23 10:47:51;;;;;;;32.30;19.45;;;6.20;83.20;;;;;;5093784;28;20016;-49
2021/01/23 10:50:17;;;;;;;34.80;20.23;;;6.20;83.10;;;;;;5091858;28;20434;-48
2021/01/23 10:52:43;;;;;;;33.70;20.52;;;6.20;82.90;;;;;;5097039;28;20510;-50
2021/01/23 10:55:09;;;;;;;27.50;17.33;;;6.20;82.90;;;;;;5113957;28;20034;-47
2021/01/23 10:57:34;;;;;;;32.65;18.63;;;6.20;82.80;;;;;;5101409;28;20031;-48
2021/01/23 11:00:00;;;;;;;31.02;18.60;;;6.20;82.80;;;;;;5102129;28;20024;-49
2021/01/23 11:02:26;;;;;;;34.05;19.63;;;6.20;83.00;;;;;;5116152;28;20039;-49
2021/01/23 11:04:51;;;;;;;40.50;22.52;;;6.30;83.00;;;;;;5108088;28;20114;-48
2021/01/23 11:07:17;;;;;;;38.28;20.30;;;6.30;83.10;;;;;;5092528;28;20399;-50
2021/01/23 11:09:43;;;;;;;25.50;17.00;;;6.30;83.00;;;;;;5106719;28;20023;-50
2021/01/23 11:12:10;;;;;;;26.10;16.30;;;6.30;82.70;;;;;;5110126;28;20072;-53
2021/01/23 11:14:37;;;;;;;28.35;17.00;;;6.40;82.30;;;;;;5113039;28;20477;-49
2021/01/23 11:17:04;;;;;;;26.90;18.08;;;6.30;82.10;;;;;;5097637;28;20020;-51
2021/01/23 11:19:31;;;;;;;30.13;19.10;;;6.30;81.60;;;;;;5094839;28;20357;-47
2021/01/23 11:21:57;;;;;;;33.47;18.10;;;6.30;81.80;;;;;;5101175;28;20124;-49
2021/01/23 11:24:22;;;;;;;31.98;19.52;;;6.20;82.00;;;;;;5104083;28;20036;-47
2021/01/23 11:26:48;;;;;;;34.35;21.20;;;6.30;82.40;;;;;;5085105;28;20106;-48
2021/01/23 11:29:14;;;;;;;28.73;18.63;;;6.30;82.40;;;;;;5114312;28;20318;-47
2021/01/23 11:31:40;;;;;;;32.75;20.02;;;6.30;82.10;;;;;;5099321;28;20023;-48
2021/01/23 11:34:06;;;;;;;39.15;22.38;;;6.30;81.90;;;;;;5100275;28;20540;-46
2021/01/23 11:36:32;;;;;;;34.50;20.25;;;6.30;81.90;;;;;;5116210;28;20103;-53
2021/01/23 11:38:58;;;;;;;29.73;19.00;;;6.30;82.10;;;;;;5111419;28;20341;-49
2021/01/23 11:41:24;;;;;;;28.42;17.20;;;6.30;82.10;;;;;;5091567;28;20023;-54
2021/01/23 11:43:49;;;;;;;48.53;20.23;;;6.20;82.00;;;;;;5083788;28;20047;-54
2021/01/23 11:46:15;;;;;;;30.92;19.17;;;6.20;82.00;;;;;;5101789;28;20019;-54
2021/01/23 11:48:41;;;;;;;37.05;22.13;;;6.20;82.00;;;;;;5096946;28;20031;-53
2021/01/23 11:51:07;;;;;;;27.00;16.48;;;6.20;82.30;;;;;;5096416;28;20028;-49
2021/01/23 11:53:33;;;;;;;29.73;17.58;;;6.30;82.10;;;;;;5108575;28;20027;-47
2021/01/23 11:55:59;;;;;;;31.63;17.88;;;6.20;82.10;;;;;;5112847;28;20113;-51
2021/01/23 11:58:25;;;;;;;26.42;18.33;;;6.20;81.90;;;;;;5084434;28;20493;-47
2021/01/23 12:00:51;;;;;;;37.70;20.10;;;6.20;81.90;;;;;;5096008;28;20337;-49
2021/01/23 12:03:18;;;;;;;28.52;17.25;;;6.20;82.20;;;;;;5093919;28;20036;-45
2021/01/23 12:05:44;;;;;;;33.78;18.75;;;6.20;82.10;;;;;;5094748;28;20068;-47
2021/01/23 12:08:09;;;;;;;26.10;16.88;;;6.20;82.10;;;;;;5094535;28;20020;-47
2021/01/23 12:10:35;;;;;;;39.20;19.15;;;6.20;82.00;;;;;;5111430;28;20027;-46
2021/01/23 12:13:01;;;;;;;30.42;18.83;;;6.20;82.10;;;;;;5115274;28;20024;-49
2021/01/23 12:15:27;;;;;;;33.78;19.50;;;6.20;82.00;;;;;;5086005;28;20032;-49
2021/01/23 12:17:53;;;;;;;28.50;18.27;;;6.10;82.00;;;;;;5091145;28;20024;-47
2021/01/23 12:20:21;;;;;;;34.13;20.95;;;6.10;82.10;;;;;;5079891;28;20405;-47
2021/01/23 12:22:47;;;;;;;30.83;20.05;;;6.10;82.10;;;;;;5101363;28;20580;-47
2021/01/23 12:25:14;;;;;;;34.90;20.20;;;6.10;82.30;;;;;;5106305;28;20038;-47
2021/01/23 12:27:39;;;;;;;32.10;19.58;;;6.10;82.40;;;;;;5098428;28;20364;-47
2021/01/23 12:30:10;;;;;;;26.70;17.80;;;6.10;82.40;;;;;;5109180;28;20035;-47
2021/01/23 12:32:37;;;;;;;30.63;18.65;;;6.10;82.60;;;;;;5108001;28;20140;-51
2021/01/23 12:35:08;;;;;;;32.95;20.38;;;6.10;82.80;;;;;;5097773;28;20086;-52
2021/01/23 12:37:35;;;;;;;32.38;19.73;;;6.10;83.00;;;;;;5103045;28;20024;-51
2021/01/23 12:40:05;;;;;;;31.98;20.38;;;6.20;83.10;;;;;;5108384;28;20031;-52
2021/01/23 12:42:31;;;;;;;30.65;19.48;;;6.20;83.10;;;;;;5092073;28;20126;-53
2021/01/23 12:44:58;;;;;;;33.65;20.33;;;6.20;82.90;;;;;;5089825;28;20035;-50